createdAt,value
2016-11-26T13:09:39.774Z,9.84
2016-11-26T13:10:39.787Z,9.92
2016-11-26T13:11:39.773Z,9.89
2016-11-26T13:12:39.775Z,9.86
2016-11-26T13:13:39.770Z,9.86
2016-11-26T13:14:39.777Z,9.86
2016-11-26T13:15:40.075Z,9.89
2016-11-26T13:16:40.067Z,9.83
2016-11-26T13:17:39.755Z,9.91
2016-11-26T13:18:39.747Z,9.91
2016-11-26T13:19:39.748Z,9.86
2016-11-26T13:20:39.751Z,9.87
2016-11-26T13:21:39.748Z,9.87
2016-11-26T13:22:40.058Z,9.84
2016-11-26T13:23:39.750Z,9.8
2016-11-26T13:24:39.729Z,9.83
2016-11-26T13:25:39.730Z,9.86
2016-11-26T13:26:39.725Z,9.91
2016-11-26T13:27:40.037Z,9.86
2016-11-26T13:28:39.720Z,9.86
2016-11-26T13:29:40.023Z,9.89
2016-11-26T13:30:39.723Z,9.8
2016-11-26T13:31:40.018Z,9.77
2016-11-26T13:32:39.725Z,9.79
2016-11-26T13:33:40.013Z,9.8
2016-11-26T13:34:39.710Z,9.76
2016-11-26T13:35:40.014Z,9.84
2016-11-26T13:36:39.704Z,9.86
2016-11-26T13:37:39.783Z,9.84
2016-11-26T13:38:39.692Z,9.86
2016-11-26T13:39:39.759Z,9.83
2016-11-26T13:40:40.803Z,9.83
2016-11-26T13:41:40.300Z,9.92
2016-11-26T13:42:39.987Z,9.89
2016-11-26T13:43:39.672Z,9.91
2016-11-26T13:44:39.986Z,9.92
2016-11-26T13:45:39.682Z,9.91
2016-11-26T13:46:39.666Z,9.89
2016-11-26T13:47:39.660Z,10.02
2016-11-26T13:48:39.660Z,9.87
2016-11-26T13:49:39.656Z,9.89
2016-11-26T13:50:39.653Z,9.84
2016-11-26T13:51:39.650Z,9.94
2016-11-26T13:52:39.646Z,9.92
2016-11-26T13:53:39.641Z,9.86
2016-11-26T13:54:39.695Z,9.84
2016-11-26T13:55:39.636Z,9.77
2016-11-26T13:56:39.632Z,9.84
2016-11-26T13:57:39.634Z,9.74
2016-11-26T13:58:39.628Z,9.83
2016-11-26T13:59:39.890Z,9.82
2016-11-26T14:00:39.629Z,9.83
2016-11-26T14:01:39.616Z,9.83
2016-11-26T14:02:39.614Z,9.83
2016-11-26T14:03:39.921Z,9.8
2016-11-26T14:04:39.609Z,9.77
2016-11-26T14:05:39.606Z,9.86
2016-11-26T14:06:39.606Z,9.77
2016-11-26T14:07:39.600Z,9.84
2016-11-26T14:08:39.916Z,9.74
2016-11-26T14:09:39.989Z,9.76
2016-11-26T14:10:39.595Z,9.87
2016-11-26T14:11:39.593Z,9.74
2016-11-26T14:12:39.596Z,9.77
2016-11-26T14:13:39.592Z,9.74
2016-11-26T14:14:39.594Z,9.74
2016-11-26T14:15:39.885Z,9.73
2016-11-26T14:16:39.880Z,9.69
2016-11-26T14:17:39.570Z,9.77
2016-11-26T14:18:39.582Z,9.79
2016-11-26T14:19:39.565Z,9.79
2016-11-26T14:20:39.872Z,9.73
2016-11-26T14:21:39.563Z,9.76
2016-11-26T14:22:39.872Z,9.73
2016-11-26T14:23:39.863Z,9.74
2016-11-26T14:24:39.746Z,9.73
2016-11-26T14:25:39.855Z,9.8
2016-11-26T14:26:39.855Z,9.68
2016-11-26T14:27:39.845Z,9.69
2016-11-26T14:28:39.544Z,9.74
2016-11-26T14:29:39.543Z,9.59
2016-11-26T14:30:39.529Z,9.62
2016-11-26T14:31:39.529Z,9.68
2016-11-26T14:32:39.549Z,9.65
2016-11-26T14:33:39.533Z,9.66
2016-11-26T14:34:39.511Z,9.56
2016-11-26T14:35:39.509Z,9.68
2016-11-26T14:36:39.507Z,9.64
2016-11-26T14:37:39.811Z,9.65
2016-11-26T14:38:39.811Z,9.65
2016-11-26T14:39:39.955Z,9.66
2016-11-26T14:40:39.801Z,9.64
2016-11-26T14:41:39.492Z,9.66
2016-11-26T14:42:39.486Z,9.69
2016-11-26T14:43:39.487Z,9.61
2016-11-26T14:44:39.546Z,9.62
2016-11-26T14:45:39.506Z,9.56
2016-11-26T14:46:39.480Z,9.64
2016-11-26T14:47:39.486Z,9.64
2016-11-26T14:48:39.468Z,9.54
2016-11-26T14:49:39.799Z,9.51
2016-11-26T14:50:39.770Z,9.58
2016-11-26T14:51:39.458Z,9.5
2016-11-26T14:52:39.493Z,9.51
2016-11-26T14:53:39.496Z,9.55
2016-11-26T14:54:39.753Z,9.62
2016-11-26T14:55:39.454Z,9.56
2016-11-26T14:56:40.093Z,9.55
2016-11-26T14:57:40.060Z,9.55
2016-11-26T14:58:39.456Z,9.58
2016-11-26T14:59:39.429Z,9.51
2016-11-26T15:00:39.429Z,9.44
2016-11-26T15:01:39.430Z,9.51
2016-11-26T15:02:39.454Z,9.47
2016-11-26T15:03:39.727Z,9.5
2016-11-26T15:04:39.411Z,9.44
2016-11-26T15:05:39.721Z,9.44
2016-11-26T15:06:39.407Z,9.37
2016-11-26T15:07:39.711Z,9.47
2016-11-26T15:08:39.736Z,9.41
2016-11-26T15:09:39.703Z,9.39
2016-11-26T15:10:39.399Z,9.29
2016-11-26T15:11:39.700Z,9.32
2016-11-26T15:12:39.399Z,9.29
2016-11-26T15:13:39.403Z,9.32
2016-11-26T15:14:39.377Z,9.16
2016-11-26T15:15:39.374Z,9.26
2016-11-26T15:16:39.378Z,9.14
2016-11-26T15:17:39.989Z,9.13
2016-11-26T15:18:39.361Z,9.16
2016-11-26T15:19:39.677Z,9.19
2016-11-26T15:20:39.679Z,9.18
2016-11-26T15:21:39.355Z,9.19
2016-11-26T15:22:39.352Z,9.18
2016-11-26T15:23:39.353Z,9.16
2016-11-26T15:24:39.385Z,9.13
2016-11-26T15:25:39.403Z,9.16
2016-11-26T15:26:39.356Z,9.11
2016-11-26T15:27:39.332Z,9.03
2016-11-26T15:29:05.444Z,8.99
2016-11-26T15:29:39.341Z,9
2016-11-26T15:30:39.637Z,8.95
2016-11-26T15:31:39.635Z,8.87
2016-11-26T15:32:39.310Z,8.89
2016-11-26T15:33:39.325Z,8.89
2016-11-26T15:34:39.310Z,8.84
2016-11-26T15:35:39.312Z,8.89
2016-11-26T15:36:39.307Z,8.89
2016-11-26T15:37:39.605Z,8.85
2016-11-26T15:38:39.294Z,8.88
2016-11-26T15:39:39.297Z,8.87
2016-11-26T15:40:39.298Z,8.87
2016-11-26T15:41:39.591Z,8.92
2016-11-26T15:42:39.276Z,8.89
2016-11-26T15:43:39.272Z,8.88
2016-11-26T15:44:39.580Z,8.88
2016-11-26T15:45:39.275Z,8.91
2016-11-26T15:46:39.569Z,8.87
2016-11-26T15:47:39.268Z,8.87
2016-11-26T15:48:39.560Z,8.87
2016-11-26T15:49:39.247Z,8.84
2016-11-26T15:50:39.244Z,8.97
2016-11-26T15:51:39.866Z,9
2016-11-26T15:52:39.857Z,8.94
2016-11-26T15:53:39.231Z,9.02
2016-11-26T15:54:39.224Z,9.11
2016-11-26T15:55:39.532Z,9
2016-11-26T15:56:39.255Z,8.97
2016-11-26T15:57:39.220Z,9.03
2016-11-26T15:58:39.530Z,8.88
2016-11-26T15:59:39.208Z,8.89
2016-11-26T16:00:39.219Z,8.92
2016-11-26T16:01:39.835Z,8.85
2016-11-26T16:02:39.197Z,8.82
2016-11-26T16:03:39.188Z,8.81
2016-11-26T16:04:39.213Z,8.81
2016-11-26T16:05:39.186Z,8.82
2016-11-26T16:06:39.496Z,8.79
2016-11-26T16:07:39.489Z,8.76
2016-11-26T16:08:39.167Z,8.69
2016-11-26T16:09:39.490Z,8.82
2016-11-26T16:10:39.473Z,8.81
2016-11-26T16:11:39.178Z,8.85
2016-11-26T16:12:39.790Z,8.91
2016-11-26T16:13:39.157Z,8.88
2016-11-26T16:14:39.466Z,8.95
2016-11-26T16:15:39.156Z,8.89
2016-11-26T16:16:39.142Z,8.97
2016-11-26T16:17:39.449Z,8.92
2016-11-26T16:18:39.137Z,8.97
2016-11-26T16:19:39.135Z,8.99
2016-11-26T16:20:39.139Z,8.92
2016-11-26T16:21:39.120Z,8.97
2016-11-26T16:22:39.112Z,9.03
2016-11-26T16:23:39.114Z,8.95
2016-11-26T16:24:39.121Z,9
2016-11-26T16:25:39.108Z,9
2016-11-26T16:26:39.105Z,9
2016-11-26T16:27:39.410Z,9
2016-11-26T16:28:39.464Z,9
2016-11-26T16:29:39.091Z,9
2016-11-26T16:30:39.094Z,9
2016-11-26T16:31:39.089Z,8.97
2016-11-26T16:32:39.089Z,9.04
2016-11-26T16:33:39.087Z,9.02
2016-11-26T16:34:39.090Z,8.99
2016-11-26T16:35:39.394Z,8.99
2016-11-26T16:36:39.066Z,8.99
2016-11-26T16:37:39.060Z,8.99
2016-11-26T16:38:39.500Z,9.04
2016-11-26T16:39:39.373Z,8.95
2016-11-26T16:40:39.048Z,9
2016-11-26T16:41:39.045Z,9.03
2016-11-26T16:42:39.045Z,9.03
2016-11-26T16:43:39.373Z,9.02
2016-11-26T16:44:39.357Z,9.04
2016-11-26T16:45:39.035Z,9.02
2016-11-26T16:46:39.037Z,9.06
2016-11-26T16:47:39.038Z,9.03
2016-11-26T16:48:39.340Z,8.99
2016-11-26T16:49:39.019Z,9.04
2016-11-26T16:50:39.327Z,8.97
2016-11-26T16:51:39.011Z,9.1
2016-11-26T16:52:39.640Z,9.1
2016-11-26T16:53:39.001Z,9.04
2016-11-26T16:54:39.023Z,9.04
2016-11-26T16:55:39.013Z,8.97
2016-11-26T16:56:38.991Z,9.06
2016-11-26T16:57:39.302Z,9.03
2016-11-26T16:58:38.988Z,8.94
2016-11-26T16:59:38.983Z,8.95
2016-11-26T17:00:39.292Z,8.85
2016-11-26T17:01:38.981Z,8.94
2016-11-26T17:02:38.976Z,8.87
2016-11-26T17:03:38.981Z,8.87
2016-11-26T17:04:38.976Z,8.82
2016-11-26T17:05:39.267Z,8.76
2016-11-26T17:06:38.979Z,8.82
2016-11-26T17:07:38.954Z,8.84
2016-11-26T17:08:38.944Z,8.73
2016-11-26T17:09:39.256Z,8.71
2016-11-26T17:10:39.259Z,8.73
2016-11-26T17:11:38.937Z,8.69
2016-11-26T17:12:39.249Z,8.84
2016-11-26T17:13:39.256Z,8.82
2016-11-26T17:14:38.930Z,8.87
2016-11-26T17:15:38.930Z,8.74
2016-11-26T17:16:39.226Z,8.82
2016-11-26T17:17:38.925Z,8.82
2016-11-26T17:18:38.924Z,8.94
2016-11-26T17:19:38.905Z,8.88
2016-11-26T17:20:38.925Z,8.91
2016-11-26T17:21:38.912Z,8.85
2016-11-26T17:22:38.897Z,8.92
2016-11-26T17:23:38.891Z,8.94
2016-11-26T17:24:39.206Z,8.89
2016-11-26T17:25:39.196Z,8.85
2016-11-26T17:26:38.883Z,8.89
2016-11-26T17:27:38.876Z,8.95
2016-11-26T17:28:38.874Z,8.91
2016-11-26T17:29:38.868Z,8.87
2016-11-26T17:30:38.865Z,8.94
2016-11-26T17:31:38.862Z,8.95
2016-11-26T17:32:38.870Z,8.95
2016-11-26T17:33:38.856Z,8.94
2016-11-26T17:34:38.881Z,8.92
2016-11-26T17:35:39.159Z,8.97
2016-11-26T17:36:39.157Z,8.99
2016-11-26T17:37:39.147Z,8.97
2016-11-26T17:38:39.153Z,9.03
2016-11-26T17:39:38.838Z,8.99
2016-11-26T17:40:38.880Z,9.04
2016-11-26T17:41:38.838Z,8.94
2016-11-26T17:42:38.824Z,8.99
2016-11-26T17:43:38.821Z,8.97
2016-11-26T17:44:38.815Z,9.02
2016-11-26T17:45:38.812Z,8.94
2016-11-26T17:46:38.807Z,8.92
2016-11-26T17:47:38.807Z,8.91
2016-11-26T17:48:38.800Z,8.88
2016-11-26T17:49:38.862Z,8.87
2016-11-26T17:50:39.104Z,8.94
2016-11-26T17:51:39.099Z,8.94
2016-11-26T17:52:38.787Z,8.89
2016-11-26T17:53:38.779Z,8.94
2016-11-26T17:54:39.091Z,8.95
2016-11-26T17:55:39.085Z,8.95
2016-11-26T17:56:38.768Z,9.03
2016-11-26T17:57:38.772Z,9.1
2016-11-26T17:58:38.768Z,8.97
2016-11-26T17:59:39.069Z,8.97
2016-11-26T18:00:39.067Z,8.91
2016-11-26T18:01:39.062Z,8.89
2016-11-26T18:02:38.747Z,8.91
2016-11-26T18:03:38.750Z,8.85
2016-11-26T18:04:38.758Z,8.88
2016-11-26T18:05:38.742Z,8.88
2016-11-26T18:06:39.044Z,8.89
2016-11-26T18:07:39.040Z,8.88
2016-11-26T18:08:39.043Z,8.97
2016-11-26T18:09:38.723Z,8.99
2016-11-26T18:10:38.719Z,8.97
2016-11-26T18:11:38.718Z,8.94
2016-11-26T18:12:39.028Z,8.87
2016-11-26T18:13:38.713Z,8.89
2016-11-26T18:14:39.016Z,8.89
2016-11-26T18:15:39.015Z,8.88
2016-11-26T18:16:38.702Z,8.92
2016-11-26T18:17:38.708Z,8.89
2016-11-26T18:18:38.695Z,8.84
2016-11-26T18:19:38.694Z,8.92
2016-11-26T18:20:39.001Z,8.94
2016-11-26T18:21:38.684Z,8.87
2016-11-26T18:22:38.672Z,8.85
2016-11-26T18:23:38.674Z,8.94
2016-11-26T18:24:38.670Z,8.89
2016-11-26T18:25:39.025Z,8.91
2016-11-26T18:26:38.967Z,8.87
2016-11-26T18:27:38.676Z,8.81
2016-11-26T18:28:38.655Z,8.82
2016-11-26T18:29:38.649Z,8.81
2016-11-26T18:30:38.702Z,8.91
2016-11-26T18:31:38.965Z,8.85
2016-11-26T18:32:38.641Z,8.97
2016-11-26T18:33:38.641Z,8.88
2016-11-26T18:34:38.650Z,8.89
2016-11-26T18:35:38.703Z,8.88
2016-11-26T18:36:38.618Z,8.85
2016-11-26T18:37:38.616Z,8.88
2016-11-26T18:38:38.607Z,8.82
2016-11-26T18:39:38.918Z,8.89
2016-11-26T18:40:39.014Z,8.79
2016-11-26T18:41:38.603Z,8.82
2016-11-26T18:42:38.598Z,8.82
2016-11-26T18:43:38.899Z,8.78
2016-11-26T18:44:38.901Z,8.69
2016-11-26T18:45:38.898Z,8.73
2016-11-26T18:46:38.579Z,8.71
2016-11-26T18:47:38.883Z,8.74
2016-11-26T18:48:38.582Z,8.73
2016-11-26T18:49:38.876Z,8.7
2016-11-26T18:50:38.564Z,8.69
2016-11-26T18:51:38.878Z,8.73
2016-11-26T18:52:38.880Z,8.64
2016-11-26T18:53:38.557Z,8.67
2016-11-26T18:54:38.552Z,8.71
